Kennebunkport, ME

1:08 AM EST on December 21, 2014 (GMT -0500)
Seaspray | Change Station
CLOSE
Current Station
Personal Weather Station
Location: Biddeford, ME
Elevation: 20 ft
Nearby Weather Stations

Elev 20 ft 43.41 °N, 70.38 °W | Updated 13 minutes ago

Overcast
Overcast
21.0 °F
Feels Like 13 °F
N
6.0
Wind Variable Wind from SE
Gusts 11.0 mph

Today
High -- | Low -- °F
--% Chance of Precip.
Yesterday
High -- | Low -- °F
Precip. -- in
7:11 AM 4:08 PM
Waning Crescent, 1% visible
Pressure 30.31 in
Visibility 10.0 miles
Clouds Mostly Cloudy 500 ft
Overcast 3800 ft
Windchill 13 °F
Dew Point 19 °F
Humidity 91%
Rainfall 0.00 in
Snow Depth Not available.
UV 0 out of 12
Pollen .10 out of 12
Air Quality Not available.
Flu Activity Not available.
METAR KSFM 210555Z AUTO 01007KT 10SM BKN005 OVC038 M07/M07 A3031 RMK AO1 11040 21070 57014

More Conditions Fewer Conditions

Pressure 30.31 in
Visibility 10.0 miles
Clouds Mostly Cloudy 500 ft
Overcast 3800 ft
Windchill 13 °F
Dew Point 19 °F
Humidity 91%
Rainfall 0.00 in
Snow Depth Not available.
UV 0 out of 12
Pollen .10 out of 12
Air Quality Not available.
Flu Activity Not available.
METAR KSFM 210555Z AUTO 01007KT 10SM BKN005 OVC038 M07/M07 A3031 RMK AO1 11040 21070 57014

More Conditions Fewer Conditions

10-Day Weather Forecast

Almanac

Astronomy

Dec. 21, 2014 Rise Set
Actual Time
Civil Twilight
Nautical Twilight
Astronomical Twilight
Moon
Length of Visible Light
Length of Day
Tomorrow will be .
, % of the Moon is Illuminated

Today's Extremes

State Highs State Lows

Community

WunderPhotos

Upload Photos

1,779,359 photos uploaded!

WunderBlogs® & News

Nearby

Air Quality

  Air Quality AQ Index Pollutant
Not available.

Snow Depth

Station Depth Elevation

Earthquake Activity

City Distance Mag. Time & Date
Minimum magnitude displayed is 2.5.

Coastal Water Temperatures

Place Temperature

Nearby Weather Stations